Terminal Aerodrome Forecast
Issued by NWS

Home | Current Version | Previous Version | Text Only | Print | Product List | Glossary On
Versions: 1 2 3 4 5 6 7 8 9 10 11 12 13 14
000
FTAK31 PAJN 031126
TAFASI
TAF
PASI 031126Z 0312/0412 29006KT P6SM VCSH OVC030
     FM031900 28010KT P6SM VCSH SCT025 BKN070
     FM040400 30010KT P6SM BKN100=

USA.gov is the U.S. government's official web portal to all federal, state and local government web resources and services.